createdAt,value
2022-10-24T00:04:19.738Z,48.70
2022-10-24T00:14:26.109Z,47.20
2022-10-24T00:24:32.418Z,44.50
2022-10-24T00:34:38.909Z,42.60
2022-10-24T00:44:45.884Z,43.00
2022-10-24T00:54:52.920Z,47.40
2022-10-24T01:04:59.244Z,39.30
2022-10-24T01:15:22.805Z,39.80
2022-10-24T01:25:41.647Z,36.60
2022-10-24T01:35:53.008Z,37.00
2022-10-24T01:46:03.223Z,37.10
2022-10-24T01:56:09.523Z,33.30
2022-10-24T02:06:28.276Z,32.80
2022-10-24T02:16:35.534Z,35.10
2022-10-24T02:27:17.290Z,34.20
2022-10-24T02:37:24.822Z,31.80
2022-10-24T02:47:32.640Z,33.70
2022-10-24T02:57:39.191Z,32.00
2022-10-24T03:07:45.455Z,35.60
2022-10-24T03:17:51.699Z,32.70
2022-10-24T03:27:58.017Z,18.20
2022-10-24T03:38:04.319Z,32.80
2022-10-24T03:48:10.630Z,38.40
2022-10-24T03:58:16.927Z,44.70
2022-10-24T04:08:23.179Z,42.50
2022-10-24T04:18:29.669Z,38.70
2022-10-24T04:28:35.997Z,33.70
2022-10-24T04:38:42.244Z,19.10
2022-10-24T04:48:48.495Z,15.60
2022-10-24T04:58:54.802Z,14.20
2022-10-24T05:09:01.072Z,13.40
2022-10-24T05:19:07.565Z,14.50
2022-10-24T05:29:14.027Z,15.80
2022-10-24T05:39:20.511Z,16.00
2022-10-24T05:49:26.804Z,16.40
2022-10-24T05:59:33.097Z,14.60
2022-10-24T06:09:41.843Z,13.80
2022-10-24T06:19:50.287Z,19.70
2022-10-24T06:29:56.535Z,13.40
2022-10-24T06:40:02.820Z,13.90
2022-10-24T06:50:09.360Z,13.00
2022-10-24T07:00:16.193Z,13.10
2022-10-24T07:10:22.544Z,15.00
2022-10-24T07:20:28.945Z,16.30
2022-10-24T07:30:35.402Z,15.20
2022-10-24T07:40:41.663Z,13.40
2022-10-24T07:50:49.041Z,12.50
2022-10-24T08:00:55.403Z,12.40
2022-10-24T08:21:13.523Z,14.50
2022-10-24T08:31:22.537Z,10.30
2022-10-24T08:41:38.185Z,8.30
2022-10-24T08:51:52.023Z,10.00
2022-10-24T09:02:18.975Z,8.60
2022-10-24T09:12:25.473Z,7.50
2022-10-24T09:22:33.936Z,8.20
2022-10-24T09:32:40.238Z,9.50
2022-10-24T09:42:58.513Z,9.50
2022-10-24T09:53:05.965Z,9.40
2022-10-24T10:03:23.904Z,9.80
2022-10-24T10:13:31.714Z,8.50
2022-10-24T10:23:42.210Z,8.40
2022-10-24T10:34:08.187Z,8.90
2022-10-24T10:44:36.372Z,7.90
2022-10-24T10:55:08.865Z,8.30
2022-10-24T11:05:45.943Z,8.60
2022-10-24T11:15:55.538Z,9.20
2022-10-24T11:26:35.435Z,6.90
2022-10-24T11:36:55.750Z,7.30
2022-10-24T11:47:25.660Z,6.30
2022-10-24T11:57:32.689Z,7.20
2022-10-24T12:08:00.471Z,8.05
2022-10-24T12:18:27.995Z,8.90
2022-10-24T12:28:34.800Z,7.80
2022-10-24T12:38:41.296Z,7.40
2022-10-24T12:48:59.759Z,7.10
2022-10-24T12:59:20.437Z,6.90
2022-10-24T13:09:36.477Z,8.00
2022-10-24T13:19:42.858Z,7.50
2022-10-24T13:29:52.172Z,9.10
2022-10-24T13:40:33.856Z,9.20
2022-10-24T13:50:47.394Z,10.30
2022-10-24T14:01:18.529Z,9.10
2022-10-24T14:11:26.988Z,6.50
2022-10-24T14:21:41.441Z,5.20
2022-10-24T14:31:47.712Z,9.10
2022-10-24T14:41:54.511Z,8.70
2022-10-24T14:52:15.762Z,8.90
2022-10-24T15:02:21.904Z,10.20
2022-10-24T15:13:05.015Z,12.20
2022-10-24T15:23:22.837Z,15.60
2022-10-24T15:33:29.163Z,11.80
2022-10-24T15:43:36.018Z,9.40
2022-10-24T15:53:43.013Z,9.50
2022-10-24T16:03:49.322Z,16.50
2022-10-24T17:16:50.150Z,17.05
2022-10-24T17:26:56.671Z,18.20
2022-10-24T17:37:21.484Z,17.20
2022-10-24T17:47:27.800Z,18.10
2022-10-24T17:57:34.144Z,19.50
2022-10-24T18:07:40.472Z,19.10
2022-10-24T18:17:47.482Z,17.60
2022-10-24T18:27:54.030Z,19.00
2022-10-24T18:38:00.395Z,18.20
2022-10-24T18:48:06.933Z,18.00
2022-10-24T18:58:14.999Z,21.20
2022-10-24T19:08:23.564Z,18.80
2022-10-24T19:18:31.986Z,17.00
2022-10-24T19:28:38.298Z,16.60
2022-10-24T19:38:44.633Z,16.10
2022-10-24T19:48:51.454Z,17.10
2022-10-24T19:58:57.792Z,16.90
2022-10-24T20:09:04.097Z,18.90
2022-10-24T20:19:10.407Z,21.10
2022-10-24T20:29:16.784Z,19.10
2022-10-24T20:39:23.326Z,21.00
2022-10-24T20:49:29.572Z,24.30
2022-10-24T20:59:35.882Z,21.80
2022-10-24T21:09:42.159Z,17.30
2022-10-24T21:19:48.489Z,18.90
2022-10-24T21:29:54.742Z,20.10
2022-10-24T21:40:01.013Z,15.50
2022-10-24T21:50:07.396Z,16.50
2022-10-24T22:00:20.573Z,17.30
2022-10-24T22:10:26.818Z,18.10
2022-10-24T22:20:33.067Z,18.10
2022-10-24T22:30:40.483Z,17.60
2022-10-24T22:40:47.378Z,19.40
2022-10-24T22:50:56.000Z,21.10
2022-10-24T23:01:06.882Z,22.10
2022-10-24T23:11:14.224Z,23.50
2022-10-24T23:21:28.398Z,26.00
2022-10-24T23:31:34.770Z,24.20
2022-10-24T23:41:41.562Z,23.20
2022-10-24T23:52:15.447Z,20.60
